Time;durP1;ratioP1;P1;durP2;ratioP2;P2;SDS_P1;SDS_P2;PMS_P1;PMS_P2;Temp;Humidity;BMP_temperature;BMP_pressure;BME280_temperature;BME280_humidity;BME280_pressure;Samples;Min_cycle;Max_cycle;Signal;HPM_P1;HPM_P2
2023/05/21 00:00:29;;;;;;;34.75;25.00;;;;;;;;;;5015497;28;20232;-84
2023/05/21 00:02:57;;;;;;;34.92;24.77;;;;;;;;;;4997784;28;20053;-84
2023/05/21 00:05:25;;;;;;;29.35;22.55;;;;;;;;;;4998012;28;20061;-84
2023/05/21 00:07:53;;;;;;;33.50;24.58;;;;;;;;;;4998059;28;20054;-85
2023/05/21 00:10:21;;;;;;;34.33;24.48;;;;;;;;;;4997831;28;20165;-84
2023/05/21 00:12:48;;;;;;;32.10;25.30;;;;;;;;;;4997902;28;20490;-84
2023/05/21 00:15:15;;;;;;;30.65;23.67;;;;;;;;;;4997716;28;20480;-84
2023/05/21 00:17:43;;;;;;;31.52;23.92;;;;;;;;;;4997567;28;20066;-84
2023/05/21 00:20:11;;;;;;;31.90;22.83;;;;;;;;;;4997834;28;20045;-85
2023/05/21 00:22:40;;;;;;;35.63;25.13;;;;;;;;;;4997858;28;20462;-84
2023/05/21 00:25:08;;;;;;;31.10;23.52;;;;;;;;;;4997708;28;20104;-85
2023/05/21 00:27:36;;;;;;;29.50;22.20;;;;;;;;;;4996707;28;20054;-85
2023/05/21 00:30:03;;;;;;;32.63;24.08;;;;;;;;;;4997551;28;20076;-84
2023/05/21 00:32:31;;;;;;;30.10;23.80;;;;;;;;;;5014850;28;20137;-84
2023/05/21 00:34:58;;;;;;;29.02;23.48;;;;;;;;;;4997533;28;20046;-84
2023/05/21 00:37:28;;;;;;;36.78;25.27;;;;;;;;;;4997589;28;20129;-84
2023/05/21 00:39:55;;;;;;;37.95;25.88;;;;;;;;;;5014854;28;20053;-85
2023/05/21 00:42:26;;;;;;;36.55;25.38;;;;;;;;;;4997428;28;20469;-84
2023/05/21 00:44:53;;;;;;;34.42;25.98;;;;;;;;;;5014346;28;20046;-84
2023/05/21 00:47:21;;;;;;;35.13;23.83;;;;;;;;;;4997374;28;20085;-84
2023/05/21 00:49:50;;;;;;;33.90;24.33;;;;;;;;;;4997264;28;20050;-83
2023/05/21 00:52:19;;;;;;;33.20;24.98;;;;;;;;;;4997063;28;20096;-84
2023/05/21 00:54:48;;;;;;;33.30;24.30;;;;;;;;;;4996894;28;20104;-84
2023/05/21 00:57:16;;;;;;;34.55;25.30;;;;;;;;;;4996953;28;20045;-84
2023/05/21 00:59:44;;;;;;;38.35;26.83;;;;;;;;;;5014391;28;20089;-85
2023/05/21 01:02:13;;;;;;;33.08;25.08;;;;;;;;;;4996988;28;20049;-84
2023/05/21 01:04:40;;;;;;;32.65;24.67;;;;;;;;;;4996911;28;20549;-84
2023/05/21 01:07:08;;;;;;;37.30;26.45;;;;;;;;;;4997073;28;20479;-84
2023/05/21 01:09:36;;;;;;;35.53;25.23;;;;;;;;;;4998435;28;20054;-85
2023/05/21 01:12:03;;;;;;;33.50;24.90;;;;;;;;;;4997469;28;20465;-84
2023/05/21 01:14:31;;;;;;;34.67;25.77;;;;;;;;;;4997069;28;20050;-84
2023/05/21 01:17:00;;;;;;;38.15;25.92;;;;;;;;;;4996610;28;20061;-84
2023/05/21 01:19:28;;;;;;;37.28;25.58;;;;;;;;;;4996877;28;20057;-84
2023/05/21 01:22:06;;;;;;;32.38;24.08;;;;;;;;;;4996471;28;20049;-85
2023/05/21 01:24:34;;;;;;;40.53;26.50;;;;;;;;;;4996561;28;20060;-84
2023/05/21 01:27:02;;;;;;;34.00;25.83;;;;;;;;;;4996592;28;20053;-84
2023/05/21 01:29:29;;;;;;;40.40;27.52;;;;;;;;;;4996498;28;20049;-84
2023/05/21 01:32:15;;;;;;;41.10;25.70;;;;;;;;;;4996380;28;20112;-84
2023/05/21 01:35:02;;;;;;;42.28;26.40;;;;;;;;;;4996325;28;20049;-84
2023/05/21 01:37:30;;;;;;;36.45;25.35;;;;;;;;;;4996231;28;20848;-84
2023/05/21 01:40:02;;;;;;;36.55;26.20;;;;;;;;;;5013778;28;20395;-84
2023/05/21 01:42:30;;;;;;;34.42;26.00;;;;;;;;;;4996405;28;20046;-84
2023/05/21 01:44:59;;;;;;;31.75;24.40;;;;;;;;;;4996106;28;20499;-84
2023/05/21 01:47:26;;;;;;;34.08;24.80;;;;;;;;;;4996296;28;20054;-84
2023/05/21 01:49:54;;;;;;;35.40;24.25;;;;;;;;;;4996406;28;20136;-83
2023/05/21 01:52:21;;;;;;;34.03;25.58;;;;;;;;;;4995971;28;20061;-84
2023/05/21 01:54:50;;;;;;;33.45;25.23;;;;;;;;;;4996152;28;20085;-84
2023/05/21 01:57:17;;;;;;;38.22;25.90;;;;;;;;;;4996198;28;20100;-84
2023/05/21 01:59:46;;;;;;;35.58;24.83;;;;;;;;;;4995964;28;20076;-84
2023/05/21 02:02:13;;;;;;;33.53;23.88;;;;;;;;;;5013129;28;20544;-84
2023/05/21 02:04:42;;;;;;;36.85;25.65;;;;;;;;;;4995728;28;20641;-84
2023/05/21 02:07:10;;;;;;;33.00;24.05;;;;;;;;;;4995760;28;20073;-84
2023/05/21 02:09:37;;;;;;;33.25;24.20;;;;;;;;;;4995677;28;20046;-84
2023/05/21 02:12:04;;;;;;;33.20;24.02;;;;;;;;;;4995514;28;20108;-84
2023/05/21 02:14:35;;;;;;;34.60;25.65;;;;;;;;;;4995621;28;20050;-84
2023/05/21 02:17:02;;;;;;;38.35;26.27;;;;;;;;;;5012803;28;20054;-84
2023/05/21 02:19:29;;;;;;;34.05;24.63;;;;;;;;;;5013180;28;20438;-84
2023/05/21 02:21:56;;;;;;;37.13;25.55;;;;;;;;;;4995665;28;20054;-84
2023/05/21 02:24:23;;;;;;;37.53;25.60;;;;;;;;;;4995516;28;20073;-84
2023/05/21 02:26:51;;;;;;;33.60;24.58;;;;;;;;;;4995580;28;20096;-84
2023/05/21 02:29:18;;;;;;;41.05;26.38;;;;;;;;;;4995530;28;20061;-84
2023/05/21 02:31:46;;;;;;;33.80;23.40;;;;;;;;;;4995544;28;20050;-84
2023/05/21 02:34:13;;;;;;;35.33;24.50;;;;;;;;;;5012880;28;20108;-84
2023/05/21 02:36:40;;;;;;;36.72;26.30;;;;;;;;;;4995633;28;20058;-84
2023/05/21 02:39:07;;;;;;;38.83;26.10;;;;;;;;;;5012779;28;20100;-84
2023/05/21 02:41:36;;;;;;;36.75;26.08;;;;;;;;;;4995316;28;20065;-84
2023/05/21 02:44:03;;;;;;;41.63;27.80;;;;;;;;;;4995341;28;20068;-84
2023/05/21 02:46:31;;;;;;;36.47;24.98;;;;;;;;;;4995315;28;20061;-84
2023/05/21 02:48:58;;;;;;;37.65;25.40;;;;;;;;;;5012695;28;20137;-84
2023/05/21 02:51:25;;;;;;;36.92;26.27;;;;;;;;;;4999028;28;20050;-84
2023/05/21 02:53:52;;;;;;;40.22;27.70;;;;;;;;;;4998897;28;20057;-84
2023/05/21 02:56:20;;;;;;;43.75;27.52;;;;;;;;;;4999027;28;20069;-84
2023/05/21 02:58:48;;;;;;;35.33;26.33;;;;;;;;;;4999080;28;20081;-84
2023/05/21 03:01:15;;;;;;;42.92;27.05;;;;;;;;;;4998887;28;20045;-84
2023/05/21 03:03:43;;;;;;;38.67;27.02;;;;;;;;;;4998708;28;20406;-84
2023/05/21 03:06:10;;;;;;;40.65;26.92;;;;;;;;;;5015744;28;20064;-84
2023/05/21 03:08:38;;;;;;;37.50;26.10;;;;;;;;;;4998604;28;20046;-84
2023/05/21 03:11:05;;;;;;;36.45;25.90;;;;;;;;;;4998691;28;20062;-84
2023/05/21 03:13:32;;;;;;;42.05;28.80;;;;;;;;;;4998545;28;20057;-84
2023/05/21 03:15:59;;;;;;;34.00;24.50;;;;;;;;;;5016099;28;20056;-84
2023/05/21 03:18:27;;;;;;;33.95;24.35;;;;;;;;;;4998304;28;20503;-84
2023/05/21 03:20:57;;;;;;;43.83;27.90;;;;;;;;;;4998597;28;20060;-84
2023/05/21 03:23:25;;;;;;;42.05;27.08;;;;;;;;;;4998604;28;20054;-84
2023/05/21 03:25:52;;;;;;;36.47;25.45;;;;;;;;;;5015697;28;20050;-84
2023/05/21 03:28:20;;;;;;;34.28;25.48;;;;;;;;;;4998402;28;20383;-84
2023/05/21 03:30:49;;;;;;;44.22;28.67;;;;;;;;;;4998362;28;20461;-84
2023/05/21 03:33:17;;;;;;;33.17;25.08;;;;;;;;;;4998100;28;20045;-84
2023/05/21 03:35:44;;;;;;;37.50;26.65;;;;;;;;;;4997960;28;20124;-84
2023/05/21 03:38:11;;;;;;;36.28;25.10;;;;;;;;;;4998282;28;20466;-84
2023/05/21 03:40:39;;;;;;;35.75;26.02;;;;;;;;;;4998346;28;20056;-84
2023/05/21 03:43:06;;;;;;;37.42;26.38;;;;;;;;;;5015633;28;20045;-84
2023/05/21 03:45:33;;;;;;;38.38;26.80;;;;;;;;;;4998122;28;20054;-84
2023/05/21 03:48:01;;;;;;;38.33;26.67;;;;;;;;;;5016641;28;20058;-84
2023/05/21 03:50:28;;;;;;;38.35;26.73;;;;;;;;;;4999081;28;20049;-84
2023/05/21 03:52:56;;;;;;;45.38;29.55;;;;;;;;;;5015345;28;20053;-84
2023/05/21 03:55:23;;;;;;;53.63;34.97;;;;;;;;;;4998037;28;20042;-84
2023/05/21 03:57:50;;;;;;;37.05;26.40;;;;;;;;;;5014924;28;20483;-84
2023/05/21 04:00:17;;;;;;;41.97;28.60;;;;;;;;;;5014755;28;20471;-84
2023/05/21 04:02:45;;;;;;;48.40;30.85;;;;;;;;;;5014170;28;20465;-84
2023/05/21 04:05:13;;;;;;;41.63;28.42;;;;;;;;;;4997692;28;20046;-84
2023/05/21 04:07:41;;;;;;;40.60;28.25;;;;;;;;;;4997639;28;20053;-84
2023/05/21 04:10:09;;;;;;;34.47;26.10;;;;;;;;;;4997647;28;20057;-84
2023/05/21 04:12:36;;;;;;;36.75;24.80;;;;;;;;;;5014642;28;20100;-84
2023/05/21 04:15:03;;;;;;;37.92;26.52;;;;;;;;;;4997337;28;20042;-83
2023/05/21 04:17:32;;;;;;;37.55;26.73;;;;;;;;;;4997284;28;20791;-84
2023/05/21 04:19:59;;;;;;;30.60;24.90;;;;;;;;;;5014796;28;20443;-83
2023/05/21 04:22:26;;;;;;;40.17;27.20;;;;;;;;;;4997404;28;20497;-84
2023/05/21 04:24:54;;;;;;;36.00;26.33;;;;;;;;;;5014312;28;20042;-84
2023/05/21 04:27:24;;;;;;;35.78;26.00;;;;;;;;;;4997229;28;20050;-83
2023/05/21 04:29:53;;;;;;;34.67;26.17;;;;;;;;;;4997294;28;20100;-84
2023/05/21 04:32:20;;;;;;;38.58;25.38;;;;;;;;;;4996973;28;20089;-84
2023/05/21 04:34:48;;;;;;;32.85;24.58;;;;;;;;;;4997266;28;20069;-84
2023/05/21 04:37:18;;;;;;;38.92;27.52;;;;;;;;;;4997187;28;20465;-84
2023/05/21 04:39:46;;;;;;;33.38;24.63;;;;;;;;;;4997036;28;20054;-84
2023/05/21 04:42:14;;;;;;;29.58;24.10;;;;;;;;;;4996999;28;20054;-84
2023/05/21 04:44:43;;;;;;;29.02;24.13;;;;;;;;;;4996933;28;20058;-84
2023/05/21 04:47:13;;;;;;;28.80;23.25;;;;;;;;;;4996991;28;20184;-84
2023/05/21 04:49:41;;;;;;;33.05;24.90;;;;;;;;;;4996943;28;20517;-84
2023/05/21 04:52:08;;;;;;;29.80;22.00;;;;;;;;;;4996587;28;20046;-83
2023/05/21 04:54:37;;;;;;;34.17;21.10;;;;;;;;;;4996685;28;20050;-84
2023/05/21 04:57:06;;;;;;;29.67;21.55;;;;;;;;;;4996616;28;20104;-84
2023/05/21 04:59:33;;;;;;;26.33;22.15;;;;;;;;;;4996557;28;20050;-84
2023/05/21 05:02:01;;;;;;;27.27;22.52;;;;;;;;;;4996754;28;20108;-84
2023/05/21 05:04:28;;;;;;;24.77;20.52;;;;;;;;;;5014270;28;20050;-84
2023/05/21 05:06:55;;;;;;;24.63;19.83;;;;;;;;;;4996616;28;20058;-84
2023/05/21 05:09:24;;;;;;;27.95;20.00;;;;;;;;;;4996618;28;20084;-84
2023/05/21 05:11:51;;;;;;;29.77;19.92;;;;;;;;;;4996632;28;20144;-84
2023/05/21 05:14:18;;;;;;;25.17;19.02;;;;;;;;;;4996740;28;20112;-84
2023/05/21 05:16:47;;;;;;;21.25;18.58;;;;;;;;;;4995815;28;20100;-84
2023/05/21 05:19:14;;;;;;;20.80;17.92;;;;;;;;;;4996126;28;20053;-84
2023/05/21 05:21:41;;;;;;;24.35;17.73;;;;;;;;;;4996258;28;20085;-84
2023/05/21 05:24:08;;;;;;;22.77;17.90;;;;;;;;;;4996353;28;20054;-84
2023/05/21 05:26:36;;;;;;;21.85;16.67;;;;;;;;;;4996454;28;20050;-83
2023/05/21 05:29:03;;;;;;;21.83;17.02;;;;;;;;;;4996481;28;20046;-84
2023/05/21 05:31:30;;;;;;;22.02;16.70;;;;;;;;;;5013728;28;20076;-84
2023/05/21 05:33:58;;;;;;;18.77;15.98;;;;;;;;;;4996158;28;20483;-84
2023/05/21 05:36:25;;;;;;;21.77;16.63;;;;;;;;;;4996233;28;20491;-84
2023/05/21 05:38:53;;;;;;;24.20;16.33;;;;;;;;;;5013678;28;20061;-84
2023/05/21 05:41:20;;;;;;;22.77;16.92;;;;;;;;;;4996362;28;20104;-84
2023/05/21 05:43:47;;;;;;;24.27;16.73;;;;;;;;;;4996289;28;20050;-84
2023/05/21 05:46:15;;;;;;;32.00;17.38;;;;;;;;;;4996357;28;20078;-84
2023/05/21 05:48:42;;;;;;;22.90;17.83;;;;;;;;;;5013201;28;20602;-84
2023/05/21 05:51:10;;;;;;;21.90;17.50;;;;;;;;;;4996403;28;20537;-84
2023/05/21 05:53:38;;;;;;;24.55;17.52;;;;;;;;;;4996091;28;20149;-84
2023/05/21 05:56:05;;;;;;;25.67;18.27;;;;;;;;;;4996086;28;20083;-84
2023/05/21 05:58:33;;;;;;;31.73;19.48;;;;;;;;;;4996073;28;20057;-84
2023/05/21 06:01:01;;;;;;;24.90;17.27;;;;;;;;;;5013647;28;20090;-84
2023/05/21 06:03:30;;;;;;;25.55;19.48;;;;;;;;;;4996377;28;20068;-83
2023/05/21 06:05:58;;;;;;;27.80;19.15;;;;;;;;;;5013312;28;20445;-84
2023/05/21 06:08:25;;;;;;;32.58;22.77;;;;;;;;;;4996235;28;20096;-83
2023/05/21 06:10:52;;;;;;;36.08;22.85;;;;;;;;;;5013263;28;20509;-84
2023/05/21 06:13:19;;;;;;;31.95;22.08;;;;;;;;;;4996187;28;20465;-84
2023/05/21 06:15:47;;;;;;;31.23;21.88;;;;;;;;;;5013088;28;20096;-84
2023/05/21 06:18:14;;;;;;;45.22;26.77;;;;;;;;;;4995525;28;20065;-84
2023/05/21 06:20:41;;;;;;;45.00;28.17;;;;;;;;;;4996168;28;20053;-84
2023/05/21 06:23:09;;;;;;;41.97;27.13;;;;;;;;;;4996288;28;20517;-85
2023/05/21 06:25:36;;;;;;;40.10;25.30;;;;;;;;;;5016263;28;20050;-84
2023/05/21 06:28:04;;;;;;;41.25;24.55;;;;;;;;;;5000039;28;20054;-85
2023/05/21 06:30:31;;;;;;;37.10;24.25;;;;;;;;;;5000776;28;20068;-85
2023/05/21 06:32:59;;;;;;;41.47;22.08;;;;;;;;;;5017431;28;20046;-85
2023/05/21 06:35:26;;;;;;;37.33;21.95;;;;;;;;;;4999850;28;20049;-84
2023/05/21 06:37:54;;;;;;;33.80;21.80;;;;;;;;;;5017086;28;20130;-84
2023/05/21 06:40:21;;;;;;;38.60;24.55;;;;;;;;;;4999625;28;20054;-85
2023/05/21 06:42:48;;;;;;;37.85;24.08;;;;;;;;;;5016809;28;20073;-85
2023/05/21 06:45:16;;;;;;;38.90;23.25;;;;;;;;;;4998933;28;20057;-83
2023/05/21 06:47:43;;;;;;;36.85;23.52;;;;;;;;;;4999426;28;20092;-85
2023/05/21 06:50:10;;;;;;;33.88;22.83;;;;;;;;;;4999683;28;20438;-85
2023/05/21 06:52:37;;;;;;;29.23;21.20;;;;;;;;;;4999241;28;20085;-85
2023/05/21 06:55:05;;;;;;;30.52;21.70;;;;;;;;;;4999223;28;20050;-85
2023/05/21 06:57:33;;;;;;;22.58;17.90;;;;;;;;;;4999348;28;20064;-84
2023/05/21 07:00:00;;;;;;;23.30;18.75;;;;;;;;;;4999101;28;20077;-85
2023/05/21 07:02:27;;;;;;;23.58;18.52;;;;;;;;;;4999493;28;20046;-87
2023/05/21 07:04:55;;;;;;;24.27;18.35;;;;;;;;;;4999568;28;20053;-85
2023/05/21 07:07:22;;;;;;;23.95;18.20;;;;;;;;;;4999047;28;20089;-84
2023/05/21 07:09:50;;;;;;;26.17;17.92;;;;;;;;;;4998937;28;20112;-84
2023/05/21 07:12:17;;;;;;;21.83;18.60;;;;;;;;;;4998933;28;20096;-85
2023/05/21 07:14:44;;;;;;;24.42;17.70;;;;;;;;;;4999015;28;20050;-85
2023/05/21 07:17:11;;;;;;;23.42;17.00;;;;;;;;;;4998828;28;20545;-84
2023/05/21 07:19:39;;;;;;;22.88;18.17;;;;;;;;;;5016676;28;20054;-86
2023/05/21 07:22:06;;;;;;;20.00;16.98;;;;;;;;;;4999367;28;20053;-86
2023/05/21 07:24:33;;;;;;;20.80;17.35;;;;;;;;;;4999172;28;20104;-87
2023/05/21 07:27:00;;;;;;;23.88;17.73;;;;;;;;;;4999140;28;20489;-86
2023/05/21 07:29:37;;;;;;;20.10;15.88;;;;;;;;;;5000364;28;20232;-85
2023/05/21 07:32:05;;;;;;;19.42;17.30;;;;;;;;;;4999011;28;20081;-87
2023/05/21 07:34:32;;;;;;;24.45;17.20;;;;;;;;;;4999009;28;20081;-85
2023/05/21 07:36:59;;;;;;;18.75;16.55;;;;;;;;;;4998432;28;20074;-85
2023/05/21 07:39:27;;;;;;;19.85;17.35;;;;;;;;;;5016263;28;20073;-87
2023/05/21 07:41:54;;;;;;;18.10;15.07;;;;;;;;;;4998793;28;20072;-85
2023/05/21 07:44:21;;;;;;;17.98;14.75;;;;;;;;;;4998913;28;20104;-87
2023/05/21 07:46:48;;;;;;;19.08;15.60;;;;;;;;;;4998725;28;20054;-85
2023/05/21 07:49:15;;;;;;;21.08;14.77;;;;;;;;;;4998957;28;20088;-87
2023/05/21 07:51:43;;;;;;;18.38;14.55;;;;;;;;;;4998404;28;20049;-86
2023/05/21 07:54:11;;;;;;;16.05;14.05;;;;;;;;;;4998361;28;20057;-86
2023/05/21 07:56:38;;;;;;;15.73;14.13;;;;;;;;;;4999104;28;20072;-86
2023/05/21 07:59:05;;;;;;;16.40;13.45;;;;;;;;;;4998726;28;20501;-87
2023/05/21 08:01:33;;;;;;;18.15;16.23;;;;;;;;;;4998801;28;20104;-85
2023/05/21 08:04:04;;;;;;;16.15;14.15;;;;;;;;;;4998343;28;20046;-86
2023/05/21 08:06:36;;;;;;;17.17;14.98;;;;;;;;;;4998493;28;20050;-85
2023/05/21 08:09:05;;;;;;;16.67;14.85;;;;;;;;;;4998597;28;20046;-85
2023/05/21 08:11:32;;;;;;;17.45;15.43;;;;;;;;;;4998635;28;20058;-85
2023/05/21 08:13:59;;;;;;;17.38;15.05;;;;;;;;;;4998286;28;20049;-85
2023/05/21 08:16:27;;;;;;;19.10;14.38;;;;;;;;;;4998475;28;20457;-87
2023/05/21 08:18:54;;;;;;;15.90;14.02;;;;;;;;;;4998172;28;20141;-87
2023/05/21 08:21:21;;;;;;;19.90;14.73;;;;;;;;;;4998156;28;20041;-86
2023/05/21 08:23:49;;;;;;;15.05;13.45;;;;;;;;;;4998013;28;20104;-85
2023/05/21 08:26:16;;;;;;;15.65;14.07;;;;;;;;;;4998303;28;20050;-85
2023/05/21 08:28:43;;;;;;;16.15;13.95;;;;;;;;;;4997908;28;20549;-87
2023/05/21 08:31:11;;;;;;;24.00;14.45;;;;;;;;;;4997800;28;20104;-87
2023/05/21 08:33:38;;;;;;;15.27;13.75;;;;;;;;;;4997932;28;20050;-85
2023/05/21 08:36:06;;;;;;;17.50;13.80;;;;;;;;;;4997762;28;20062;-88
2023/05/21 08:38:35;;;;;;;17.83;14.23;;;;;;;;;;4997613;28;20498;-85
2023/05/21 08:41:04;;;;;;;15.55;13.95;;;;;;;;;;4997957;28;20065;-87
2023/05/21 08:43:31;;;;;;;14.73;13.07;;;;;;;;;;4997492;28;20104;-86
2023/05/21 08:46:00;;;;;;;18.27;13.85;;;;;;;;;;4997221;28;20053;-86
2023/05/21 08:48:27;;;;;;;16.08;13.52;;;;;;;;;;4996668;28;20513;-87
2023/05/21 08:50:55;;;;;;;15.00;13.50;;;;;;;;;;4997438;28;20054;-88
2023/05/21 08:53:22;;;;;;;16.10;12.55;;;;;;;;;;4997394;28;20050;-86
2023/05/21 08:55:56;;;;;;;15.80;13.55;;;;;;;;;;4998147;28;20061;-86
2023/05/21 08:58:23;;;;;;;16.45;13.88;;;;;;;;;;4997153;28;20574;-84
2023/05/21 09:00:51;;;;;;;15.40;13.77;;;;;;;;;;5014231;28;20049;-85
2023/05/21 09:03:21;;;;;;;13.63;12.27;;;;;;;;;;5014560;28;20061;-87
2023/05/21 09:05:50;;;;;;;13.70;11.90;;;;;;;;;;4997428;28;20056;-86
2023/05/21 09:08:18;;;;;;;15.50;13.68;;;;;;;;;;4997481;28;20050;-88
2023/05/21 09:10:49;;;;;;;15.55;13.32;;;;;;;;;;4996956;28;20073;-84
2023/05/21 09:13:17;;;;;;;14.70;12.55;;;;;;;;;;4996766;28;20053;-85
2023/05/21 09:15:44;;;;;;;15.40;12.40;;;;;;;;;;4996583;28;20050;-87
2023/05/21 09:18:12;;;;;;;13.40;11.98;;;;;;;;;;4996381;28;20077;-86
2023/05/21 09:20:40;;;;;;;14.77;11.88;;;;;;;;;;4996407;28;20104;-85
2023/05/21 09:23:15;;;;;;;13.18;11.98;;;;;;;;;;4996367;28;20116;-84
2023/05/21 09:25:50;;;;;;;24.13;12.45;;;;;;;;;;4996358;28;20054;-86
2023/05/21 09:28:18;;;;;;;26.85;12.35;;;;;;;;;;4996475;28;20049;-86
2023/05/21 09:30:47;;;;;;;14.90;11.10;;;;;;;;;;5013882;28;20053;-86
2023/05/21 09:33:24;;;;;;;15.38;12.18;;;;;;;;;;4996465;28;20133;-85
2023/05/21 09:35:51;;;;;;;12.95;11.52;;;;;;;;;;4996449;28;20410;-86
2023/05/21 09:38:21;;;;;;;12.65;11.32;;;;;;;;;;4996325;28;20073;-87
2023/05/21 09:40:48;;;;;;;12.23;10.93;;;;;;;;;;4996362;28;20052;-85
2023/05/21 09:43:16;;;;;;;16.10;11.30;;;;;;;;;;5013437;28;20483;-86
2023/05/21 09:45:50;;;;;;;13.85;12.35;;;;;;;;;;5013478;28;20112;-87
2023/05/21 09:48:31;;;;;;;10.80;9.77;;;;;;;;;;4996279;28;20045;-86
2023/05/21 09:51:12;;;;;;;10.98;9.98;;;;;;;;;;4996440;28;20080;-86
2023/05/21 09:53:49;;;;;;;12.60;11.35;;;;;;;;;;4996572;28;20053;-87
2023/05/21 09:56:30;;;;;;;12.60;11.32;;;;;;;;;;4996403;28;20099;-86
2023/05/21 09:59:00;;;;;;;12.75;11.52;;;;;;;;;;4996216;28;20128;-85
2023/05/21 10:01:30;;;;;;;16.70;10.88;;;;;;;;;;4996230;28;20057;-87
2023/05/21 10:03:59;;;;;;;11.27;9.90;;;;;;;;;;4996132;28;20108;-85
2023/05/21 10:06:27;;;;;;;11.20;10.07;;;;;;;;;;5013308;28;20468;-86
2023/05/21 10:08:56;;;;;;;10.38;9.30;;;;;;;;;;4996118;28;20046;-87
2023/05/21 10:11:25;;;;;;;12.95;11.68;;;;;;;;;;4996212;28;20502;-85
2023/05/21 10:13:56;;;;;;;11.55;10.45;;;;;;;;;;4996059;28;20062;-86
2023/05/21 10:16:24;;;;;;;10.88;9.77;;;;;;;;;;5013493;28;20054;-86
2023/05/21 10:18:54;;;;;;;10.50;9.43;;;;;;;;;;4996004;28;20054;-86
2023/05/21 10:21:22;;;;;;;9.57;8.57;;;;;;;;;;5013580;28;20058;-89
2023/05/21 10:23:50;;;;;;;9.38;8.48;;;;;;;;;;4996035;28;20050;-86
2023/05/21 10:26:20;;;;;;;9.23;8.30;;;;;;;;;;4995843;28;20430;-87
2023/05/21 10:28:49;;;;;;;10.23;8.57;;;;;;;;;;4996255;28;20057;-87
2023/05/21 10:31:16;;;;;;;9.23;7.97;;;;;;;;;;4996606;28;20081;-86
2023/05/21 10:33:44;;;;;;;7.38;6.72;;;;;;;;;;4996157;28;20046;-86
2023/05/21 10:36:11;;;;;;;8.13;7.30;;;;;;;;;;5013233;28;20454;-85
2023/05/21 10:38:39;;;;;;;6.07;5.57;;;;;;;;;;5013205;28;20054;-85
2023/05/21 10:41:07;;;;;;;6.30;5.57;;;;;;;;;;4996119;28;20100;-86
2023/05/21 10:43:41;;;;;;;7.57;6.25;;;;;;;;;;5013077;28;20050;-87
2023/05/21 10:46:23;;;;;;;7.70;5.72;;;;;;;;;;4995722;28;20046;-85
2023/05/21 10:48:50;;;;;;;6.72;6.05;;;;;;;;;;5012846;28;20046;-87
2023/05/21 10:51:33;;;;;;;5.97;5.38;;;;;;;;;;4996018;28;20053;-85
2023/05/21 10:54:08;;;;;;;8.93;5.50;;;;;;;;;;4995967;28;20050;-86
2023/05/21 10:56:45;;;;;;;8.85;5.70;;;;;;;;;;4995692;28;20049;-85
2023/05/21 10:59:20;;;;;;;9.27;5.63;;;;;;;;;;4995939;28;20557;-85
2023/05/21 11:01:51;;;;;;;5.50;4.95;;;;;;;;;;5012640;28;20046;-85
2023/05/21 11:04:22;;;;;;;7.13;5.47;;;;;;;;;;4995795;28;20076;-88
2023/05/21 11:06:50;;;;;;;7.30;5.30;;;;;;;;;;4996589;28;20084;-87
2023/05/21 11:09:17;;;;;;;5.82;5.43;;;;;;;;;;4997730;28;20049;-87
2023/05/21 11:11:47;;;;;;;9.20;5.50;;;;;;;;;;5015730;28;20050;-84
2023/05/21 11:14:39;;;;;;;6.22;5.63;;;;;;;;;;4999526;28;20049;-86
2023/05/21 11:17:06;;;;;;;7.32;5.43;;;;;;;;;;4998375;28;20104;-86
2023/05/21 11:19:35;;;;;;;6.00;5.50;;;;;;;;;;4998849;28;20494;-86
2023/05/21 11:22:07;;;;;;;5.63;5.22;;;;;;;;;;4999079;28;20092;-84
2023/05/21 11:24:37;;;;;;;5.68;5.18;;;;;;;;;;4998833;28;20065;-85
2023/05/21 11:27:05;;;;;;;5.82;5.13;;;;;;;;;;4999430;28;20046;-90
2023/05/21 11:29:40;;;;;;;6.22;5.38;;;;;;;;;;4999505;28;20061;-86
2023/05/21 11:32:08;;;;;;;5.75;5.22;;;;;;;;;;4999156;28;20042;-85
2023/05/21 11:34:39;;;;;;;7.80;5.70;;;;;;;;;;5016356;28;20057;-85
2023/05/21 11:37:16;;;;;;;6.88;6.15;;;;;;;;;;5000181;28;20116;-90
2023/05/21 11:39:44;;;;;;;6.03;5.43;;;;;;;;;;5017296;28;20053;-89
2023/05/21 11:42:11;;;;;;;7.43;5.43;;;;;;;;;;5002271;28;20058;-86
2023/05/21 11:44:46;;;;;;;8.98;5.70;;;;;;;;;;5002053;28;20046;-86
2023/05/21 11:47:14;;;;;;;6.50;5.78;;;;;;;;;;4998820;28;20108;-86
2023/05/21 11:49:42;;;;;;;10.48;5.07;;;;;;;;;;4998691;28;20120;-87
2023/05/21 11:52:10;;;;;;;6.15;5.63;;;;;;;;;;4998522;28;20053;-87
2023/05/21 11:54:40;;;;;;;6.93;6.00;;;;;;;;;;5015712;28;20123;-90
2023/05/21 11:57:08;;;;;;;5.97;5.32;;;;;;;;;;4999206;28;20053;-90
2023/05/21 11:59:35;;;;;;;6.55;5.15;;;;;;;;;;4998627;28;20057;-89
2023/05/21 12:02:03;;;;;;;5.18;4.53;;;;;;;;;;4999106;28;20049;-88
2023/05/21 12:04:31;;;;;;;5.35;4.85;;;;;;;;;;4998903;28;20108;-86
2023/05/21 12:06:58;;;;;;;6.75;5.15;;;;;;;;;;5016334;28;20053;-91
2023/05/21 12:09:26;;;;;;;5.60;5.20;;;;;;;;;;4998835;28;20406;-91
2023/05/21 12:11:53;;;;;;;7.22;5.00;;;;;;;;;;4998921;28;20062;-88
2023/05/21 12:14:21;;;;;;;6.43;5.35;;;;;;;;;;4999204;28;20388;-91
2023/05/21 12:16:49;;;;;;;5.25;4.75;;;;;;;;;;5017325;28;20054;-92
2023/05/21 12:19:17;;;;;;;5.80;5.15;;;;;;;;;;4999156;28;20050;-91
2023/05/21 12:21:45;;;;;;;5.68;5.13;;;;;;;;;;4997754;28;20054;-88
2023/05/21 12:24:12;;;;;;;5.22;4.82;;;;;;;;;;4997459;28;20062;-85
2023/05/21 12:26:40;;;;;;;5.30;4.90;;;;;;;;;;4997828;28;20057;-87
2023/05/21 12:29:08;;;;;;;6.88;5.25;;;;;;;;;;4997957;28;20144;-88
2023/05/21 12:31:46;;;;;;;6.68;5.15;;;;;;;;;;4998073;28;20054;-90
2023/05/21 12:34:17;;;;;;;5.07;4.57;;;;;;;;;;4998156;28;20072;-87
2023/05/21 12:36:47;;;;;;;4.95;4.38;;;;;;;;;;5015529;28;20042;-85
2023/05/21 12:39:15;;;;;;;5.32;4.82;;;;;;;;;;4997556;28;20490;-89
2023/05/21 12:41:43;;;;;;;5.63;4.93;;;;;;;;;;4997767;28;20084;-83
2023/05/21 12:44:11;;;;;;;6.60;4.95;;;;;;;;;;4997652;28;20046;-92
2023/05/21 12:46:38;;;;;;;8.88;5.13;;;;;;;;;;4997926;28;20054;-86
2023/05/21 12:49:09;;;;;;;6.57;5.35;;;;;;;;;;4998091;28;20054;-86
2023/05/21 12:51:44;;;;;;;5.60;5.00;;;;;;;;;;4997999;28;20454;-89
2023/05/21 12:54:12;;;;;;;6.10;5.60;;;;;;;;;;4997349;28;20402;-86
2023/05/21 12:56:46;;;;;;;6.53;4.50;;;;;;;;;;4997879;28;20112;-91
2023/05/21 12:59:16;;;;;;;5.72;5.20;;;;;;;;;;4998616;28;20112;-90
2023/05/21 13:01:47;;;;;;;7.57;5.60;;;;;;;;;;4997825;28;20089;-86
2023/05/21 13:04:14;;;;;;;9.60;5.88;;;;;;;;;;4996803;28;20058;-84
2023/05/21 13:06:44;;;;;;;8.50;6.22;;;;;;;;;;4997135;28;20072;-87
2023/05/21 13:09:11;;;;;;;5.65;5.15;;;;;;;;;;4997246;28;20046;-88
2023/05/21 13:11:39;;;;;;;8.50;5.45;;;;;;;;;;4997880;28;20053;-91
2023/05/21 13:14:06;;;;;;;6.50;5.03;;;;;;;;;;4998084;28;20050;-92
2023/05/21 13:16:33;;;;;;;5.97;5.38;;;;;;;;;;4996764;28;20050;-87
2023/05/21 13:19:01;;;;;;;5.85;5.18;;;;;;;;;;4996943;28;20463;-89
2023/05/21 13:21:28;;;;;;;5.32;4.93;;;;;;;;;;4997424;28;20060;-87
2023/05/21 13:23:55;;;;;;;6.35;5.20;;;;;;;;;;4997333;28;20494;-90
2023/05/21 13:26:23;;;;;;;8.88;5.95;;;;;;;;;;4996714;28;20058;-84
2023/05/21 13:28:50;;;;;;;10.43;6.03;;;;;;;;;;4996768;28;20108;-87
2023/05/21 13:31:17;;;;;;;8.05;5.22;;;;;;;;;;4997178;28;20050;-86
2023/05/21 13:33:44;;;;;;;6.60;5.55;;;;;;;;;;4996200;28;20042;-87
2023/05/21 13:36:11;;;;;;;8.23;5.20;;;;;;;;;;4996619;28;20056;-87
2023/05/21 13:38:39;;;;;;;5.95;5.28;;;;;;;;;;4997332;28;20069;-89
2023/05/21 13:41:06;;;;;;;6.45;5.32;;;;;;;;;;4997007;28;20058;-83
2023/05/21 13:43:33;;;;;;;7.32;4.65;;;;;;;;;;5013643;28;20054;-90
2023/05/21 13:46:01;;;;;;;8.30;7.20;;;;;;;;;;4996792;28;20058;-87
2023/05/21 13:48:28;;;;;;;6.07;5.32;;;;;;;;;;4997147;28;20495;-90
2023/05/21 13:50:55;;;;;;;5.95;5.45;;;;;;;;;;4997180;28;20486;-91
2023/05/21 13:53:23;;;;;;;6.25;5.22;;;;;;;;;;4996828;28;20073;-90
2023/05/21 13:55:50;;;;;;;6.03;5.30;;;;;;;;;;4997734;28;20457;-92
2023/05/21 13:58:18;;;;;;;17.83;12.77;;;;;;;;;;4997380;28;20058;-87
2023/05/21 14:00:45;;;;;;;7.50;5.40;;;;;;;;;;4996544;28;20049;-89
2023/05/21 14:03:12;;;;;;;7.45;5.85;;;;;;;;;;4996668;28;20046;-86
2023/05/21 14:05:40;;;;;;;6.18;5.78;;;;;;;;;;4996713;28;20423;-89
2023/05/21 14:08:07;;;;;;;6.95;5.63;;;;;;;;;;4997088;28;20080;-88
2023/05/21 14:10:34;;;;;;;7.03;6.32;;;;;;;;;;4996834;28;20053;-87
2023/05/21 14:13:02;;;;;;;5.55;5.10;;;;;;;;;;4997407;28;20470;-88
2023/05/21 14:15:44;;;;;;;6.05;5.50;;;;;;;;;;4999889;28;20062;-89
2023/05/21 14:18:12;;;;;;;5.80;5.30;;;;;;;;;;5000271;28;20050;-87
2023/05/21 14:20:39;;;;;;;6.05;4.97;;;;;;;;;;4998150;28;20141;-86
2023/05/21 14:23:08;;;;;;;5.63;5.22;;;;;;;;;;4997564;28;20104;-90
2023/05/21 14:25:35;;;;;;;6.20;5.43;;;;;;;;;;4996448;28;20495;-88
2023/05/21 14:28:03;;;;;;;7.82;4.78;;;;;;;;;;4996798;28;20050;-86
2023/05/21 14:30:30;;;;;;;7.60;4.72;;;;;;;;;;4996952;28;20049;-87